KERV/ERV METAR and TAF weather

Enter ICAO airport designator
Station Type Date Time Source
KERV METAR 2020/03/29 14:15 UTC NOAA

KERV 291415Z AUTO 30004KT 10SM CLR 11/06 A3016 RMK AO2 T01130055


Station Type Date Time Source
KERV Decoded METAR 2020/03/29 14:15 UTC NOAA

Kerrville, Kerrville Municipal Airport/Louis Schreiner Field, TX, United States (KERV) 29-58N 099-05W
Mar 29, 2020 - 10:15 AM EDT / 2020.03.29 1415 UTC
Wind: from the WNW (300 degrees) at 5 MPH (4 KT):0
Visibility: 10 mile(s):0
Sky conditions: clear
Temperature: 52.3 F (11.3 C)
Dew Point: 41.9 F (5.5 C)
Relative Humidity: 67%
Pressure (altimeter): 30.16 in. Hg (1021 hPa)
ob: KERV 291415Z AUTO 30004KT 10SM CLR 11/06 A3016 RMK AO2 T01130055
cycle: 14

Station Type Date Time Source
KERV TAF UTC NOAA

Error!

Example: see airport list